sensor_id;sensor_type;location;lat;lon;timestamp;P1;durP1;ratioP1;P2;durP2;ratioP2
65463;SDS011;52063;45.110;9.870;2023-04-15T00:01:11;1.85;;;1.00;;
65463;SDS011;52063;45.110;9.870;2023-04-15T00:03:37;1.00;;;0.80;;
65463;SDS011;52063;45.110;9.870;2023-04-15T00:06:03;1.50;;;1.00;;
65463;SDS011;52063;45.110;9.870;2023-04-15T00:08:28;0.80;;;0.70;;
65463;SDS011;52063;45.110;9.870;2023-04-15T00:10:54;1.30;;;0.80;;
65463;SDS011;52063;45.110;9.870;2023-04-15T00:13:20;1.23;;;1.05;;
65463;SDS011;52063;45.110;9.870;2023-04-15T00:15:46;1.10;;;0.80;;
65463;SDS011;52063;45.110;9.870;2023-04-15T00:18:12;0.95;;;0.82;;
65463;SDS011;52063;45.110;9.870;2023-04-15T00:20:37;1.20;;;0.70;;
65463;SDS011;52063;45.110;9.870;2023-04-15T00:23:03;1.20;;;0.80;;
65463;SDS011;52063;45.110;9.870;2023-04-15T00:25:29;1.70;;;0.90;;
65463;SDS011;52063;45.110;9.870;2023-04-15T00:27:55;1.00;;;0.88;;
65463;SDS011;52063;45.110;9.870;2023-04-15T00:30:21;1.00;;;0.90;;
65463;SDS011;52063;45.110;9.870;2023-04-15T00:32:47;1.20;;;0.80;;
65463;SDS011;52063;45.110;9.870;2023-04-15T00:35:16;1.10;;;1.00;;
65463;SDS011;52063;45.110;9.870;2023-04-15T00:37:42;0.93;;;0.80;;
65463;SDS011;52063;45.110;9.870;2023-04-15T00:40:09;0.83;;;0.73;;
65463;SDS011;52063;45.110;9.870;2023-04-15T00:42:38;1.52;;;1.00;;
65463;SDS011;52063;45.110;9.870;2023-04-15T00:45:03;0.90;;;0.77;;
65463;SDS011;52063;45.110;9.870;2023-04-15T00:47:29;0.90;;;0.80;;
65463;SDS011;52063;45.110;9.870;2023-04-15T00:49:56;1.38;;;0.70;;
65463;SDS011;52063;45.110;9.870;2023-04-15T00:52:22;1.17;;;0.80;;
65463;SDS011;52063;45.110;9.870;2023-04-15T00:54:47;2.80;;;0.77;;
65463;SDS011;52063;45.110;9.870;2023-04-15T00:57:13;0.93;;;0.70;;
65463;SDS011;52063;45.110;9.870;2023-04-15T00:59:38;1.07;;;0.70;;
65463;SDS011;52063;45.110;9.870;2023-04-15T01:02:04;0.90;;;0.63;;
65463;SDS011;52063;45.110;9.870;2023-04-15T01:04:29;1.27;;;0.80;;
65463;SDS011;52063;45.110;9.870;2023-04-15T01:06:56;0.80;;;0.70;;
65463;SDS011;52063;45.110;9.870;2023-04-15T01:09:21;1.37;;;0.70;;
65463;SDS011;52063;45.110;9.870;2023-04-15T01:11:49;1.05;;;0.90;;
65463;SDS011;52063;45.110;9.870;2023-04-15T01:14:15;1.13;;;0.83;;
65463;SDS011;52063;45.110;9.870;2023-04-15T01:16:40;1.00;;;0.70;;
65463;SDS011;52063;45.110;9.870;2023-04-15T01:19:07;0.83;;;0.70;;
65463;SDS011;52063;45.110;9.870;2023-04-15T01:21:35;2.15;;;0.90;;
65463;SDS011;52063;45.110;9.870;2023-04-15T01:24:07;1.42;;;0.75;;
65463;SDS011;52063;45.110;9.870;2023-04-15T01:26:35;0.90;;;0.80;;
65463;SDS011;52063;45.110;9.870;2023-04-15T01:29:06;1.10;;;0.73;;
65463;SDS011;52063;45.110;9.870;2023-04-15T01:31:32;1.20;;;0.90;;
65463;SDS011;52063;45.110;9.870;2023-04-15T01:33:58;1.23;;;0.90;;
65463;SDS011;52063;45.110;9.870;2023-04-15T01:36:23;1.13;;;0.80;;
65463;SDS011;52063;45.110;9.870;2023-04-15T01:38:51;1.02;;;0.90;;
65463;SDS011;52063;45.110;9.870;2023-04-15T01:41:21;1.52;;;0.82;;
65463;SDS011;52063;45.110;9.870;2023-04-15T01:43:50;1.00;;;0.70;;
65463;SDS011;52063;45.110;9.870;2023-04-15T01:46:16;0.95;;;0.85;;
65463;SDS011;52063;45.110;9.870;2023-04-15T01:48:42;1.08;;;0.90;;
65463;SDS011;52063;45.110;9.870;2023-04-15T01:51:07;1.00;;;0.80;;
65463;SDS011;52063;45.110;9.870;2023-04-15T01:53:33;1.17;;;0.83;;
65463;SDS011;52063;45.110;9.870;2023-04-15T01:55:58;0.90;;;0.70;;
65463;SDS011;52063;45.110;9.870;2023-04-15T01:58:24;2.10;;;0.80;;
65463;SDS011;52063;45.110;9.870;2023-04-15T02:00:49;1.27;;;0.90;;
65463;SDS011;52063;45.110;9.870;2023-04-15T02:03:15;1.50;;;1.10;;
65463;SDS011;52063;45.110;9.870;2023-04-15T02:05:41;0.90;;;0.60;;
65463;SDS011;52063;45.110;9.870;2023-04-15T02:08:06;1.13;;;0.80;;
65463;SDS011;52063;45.110;9.870;2023-04-15T02:10:32;2.80;;;1.00;;
65463;SDS011;52063;45.110;9.870;2023-04-15T02:12:57;1.10;;;0.80;;
65463;SDS011;52063;45.110;9.870;2023-04-15T02:15:26;1.10;;;0.90;;
65463;SDS011;52063;45.110;9.870;2023-04-15T02:17:51;1.98;;;0.80;;
65463;SDS011;52063;45.110;9.870;2023-04-15T02:20:19;1.38;;;0.60;;
65463;SDS011;52063;45.110;9.870;2023-04-15T02:22:45;1.00;;;0.80;;
65463;SDS011;52063;45.110;9.870;2023-04-15T02:25:13;0.95;;;0.60;;
65463;SDS011;52063;45.110;9.870;2023-04-15T02:27:41;2.08;;;0.80;;
65463;SDS011;52063;45.110;9.870;2023-04-15T02:30:07;1.00;;;0.90;;
65463;SDS011;52063;45.110;9.870;2023-04-15T02:32:33;2.42;;;1.00;;
65463;SDS011;52063;45.110;9.870;2023-04-15T02:35:05;1.43;;;0.70;;
65463;SDS011;52063;45.110;9.870;2023-04-15T02:37:32;1.73;;;0.70;;
65463;SDS011;52063;45.110;9.870;2023-04-15T02:40:09;1.50;;;0.90;;
65463;SDS011;52063;45.110;9.870;2023-04-15T02:42:38;1.10;;;0.73;;
65463;SDS011;52063;45.110;9.870;2023-04-15T02:45:06;2.22;;;0.77;;
65463;SDS011;52063;45.110;9.870;2023-04-15T02:47:34;0.82;;;0.70;;
65463;SDS011;52063;45.110;9.870;2023-04-15T02:50:01;1.45;;;0.70;;
65463;SDS011;52063;45.110;9.870;2023-04-15T02:52:31;1.75;;;0.90;;
65463;SDS011;52063;45.110;9.870;2023-04-15T02:54:57;0.80;;;0.60;;
65463;SDS011;52063;45.110;9.870;2023-04-15T02:57:25;1.00;;;0.60;;
65463;SDS011;52063;45.110;9.870;2023-04-15T02:59:53;2.45;;;0.77;;
65463;SDS011;52063;45.110;9.870;2023-04-15T03:02:18;0.80;;;0.63;;
65463;SDS011;52063;45.110;9.870;2023-04-15T03:04:44;0.87;;;0.73;;
65463;SDS011;52063;45.110;9.870;2023-04-15T03:07:10;1.40;;;0.70;;
65463;SDS011;52063;45.110;9.870;2023-04-15T03:09:35;0.90;;;0.50;;
65463;SDS011;52063;45.110;9.870;2023-04-15T03:12:02;2.03;;;0.82;;
65463;SDS011;52063;45.110;9.870;2023-04-15T03:14:28;0.93;;;0.75;;
65463;SDS011;52063;45.110;9.870;2023-04-15T03:16:53;2.93;;;0.60;;
65463;SDS011;52063;45.110;9.870;2023-04-15T03:19:19;0.88;;;0.70;;
65463;SDS011;52063;45.110;9.870;2023-04-15T03:21:45;1.57;;;0.90;;
65463;SDS011;52063;45.110;9.870;2023-04-15T03:24:12;0.85;;;0.65;;
65463;SDS011;52063;45.110;9.870;2023-04-15T03:26:37;3.80;;;0.60;;
65463;SDS011;52063;45.110;9.870;2023-04-15T03:29:09;0.88;;;0.70;;
65463;SDS011;52063;45.110;9.870;2023-04-15T03:31:35;0.77;;;0.70;;
65463;SDS011;52063;45.110;9.870;2023-04-15T03:34:00;1.00;;;0.80;;
65463;SDS011;52063;45.110;9.870;2023-04-15T03:36:27;0.80;;;0.60;;
65463;SDS011;52063;45.110;9.870;2023-04-15T03:38:53;1.33;;;0.70;;
65463;SDS011;52063;45.110;9.870;2023-04-15T03:41:20;2.97;;;0.75;;
65463;SDS011;52063;45.110;9.870;2023-04-15T03:43:45;1.33;;;0.70;;
65463;SDS011;52063;45.110;9.870;2023-04-15T03:46:11;0.95;;;0.70;;
65463;SDS011;52063;45.110;9.870;2023-04-15T03:48:36;0.90;;;0.80;;
65463;SDS011;52063;45.110;9.870;2023-04-15T03:51:02;0.93;;;0.80;;
65463;SDS011;52063;45.110;9.870;2023-04-15T03:53:27;1.67;;;0.80;;
65463;SDS011;52063;45.110;9.870;2023-04-15T03:55:52;1.43;;;0.70;;
65463;SDS011;52063;45.110;9.870;2023-04-15T03:58:18;0.97;;;0.80;;
65463;SDS011;52063;45.110;9.870;2023-04-15T04:00:43;1.17;;;0.80;;
65463;SDS011;52063;45.110;9.870;2023-04-15T04:03:09;1.20;;;0.90;;
65463;SDS011;52063;45.110;9.870;2023-04-15T04:05:34;1.40;;;0.63;;
65463;SDS011;52063;45.110;9.870;2023-04-15T04:08:03;0.82;;;0.60;;
65463;SDS011;52063;45.110;9.870;2023-04-15T04:10:29;1.13;;;0.57;;
65463;SDS011;52063;45.110;9.870;2023-04-15T04:12:54;1.90;;;0.60;;
65463;SDS011;52063;45.110;9.870;2023-04-15T04:15:19;0.90;;;0.70;;
65463;SDS011;52063;45.110;9.870;2023-04-15T04:17:45;1.03;;;0.60;;
65463;SDS011;52063;45.110;9.870;2023-04-15T04:20:10;0.80;;;0.63;;
65463;SDS011;52063;45.110;9.870;2023-04-15T04:22:39;0.97;;;0.70;;
65463;SDS011;52063;45.110;9.870;2023-04-15T04:25:05;0.90;;;0.70;;
65463;SDS011;52063;45.110;9.870;2023-04-15T04:27:32;0.80;;;0.63;;
65463;SDS011;52063;45.110;9.870;2023-04-15T04:29:58;1.57;;;0.67;;
65463;SDS011;52063;45.110;9.870;2023-04-15T04:32:23;1.37;;;0.67;;
65463;SDS011;52063;45.110;9.870;2023-04-15T04:34:49;0.90;;;0.80;;
65463;SDS011;52063;45.110;9.870;2023-04-15T04:37:15;1.10;;;0.70;;
65463;SDS011;52063;45.110;9.870;2023-04-15T04:39:40;1.65;;;0.77;;
65463;SDS011;52063;45.110;9.870;2023-04-15T04:42:05;1.33;;;1.00;;
65463;SDS011;52063;45.110;9.870;2023-04-15T04:44:31;0.90;;;0.60;;
65463;SDS011;52063;45.110;9.870;2023-04-15T04:46:56;1.43;;;0.80;;
65463;SDS011;52063;45.110;9.870;2023-04-15T04:49:22;0.93;;;0.70;;
65463;SDS011;52063;45.110;9.870;2023-04-15T04:51:47;0.90;;;0.60;;
65463;SDS011;52063;45.110;9.870;2023-04-15T04:54:13;0.80;;;0.60;;
65463;SDS011;52063;45.110;9.870;2023-04-15T04:56:38;1.20;;;0.80;;
65463;SDS011;52063;45.110;9.870;2023-04-15T04:59:04;0.90;;;0.68;;
65463;SDS011;52063;45.110;9.870;2023-04-15T05:01:29;0.93;;;0.73;;
65463;SDS011;52063;45.110;9.870;2023-04-15T05:03:55;0.90;;;0.70;;
65463;SDS011;52063;45.110;9.870;2023-04-15T05:06:20;0.90;;;0.70;;
65463;SDS011;52063;45.110;9.870;2023-04-15T05:08:46;0.83;;;0.60;;
65463;SDS011;52063;45.110;9.870;2023-04-15T05:11:12;1.83;;;1.00;;
65463;SDS011;52063;45.110;9.870;2023-04-15T05:13:37;1.33;;;0.80;;
65463;SDS011;52063;45.110;9.870;2023-04-15T05:16:06;0.98;;;0.77;;
65463;SDS011;52063;45.110;9.870;2023-04-15T05:18:32;2.80;;;0.90;;
65463;SDS011;52063;45.110;9.870;2023-04-15T05:20:58;1.55;;;0.68;;
65463;SDS011;52063;45.110;9.870;2023-04-15T05:23:23;1.20;;;0.70;;
65463;SDS011;52063;45.110;9.870;2023-04-15T05:25:49;0.95;;;0.70;;
65463;SDS011;52063;45.110;9.870;2023-04-15T05:28:14;1.10;;;0.90;;
65463;SDS011;52063;45.110;9.870;2023-04-15T05:30:40;1.70;;;0.75;;
65463;SDS011;52063;45.110;9.870;2023-04-15T05:33:06;1.33;;;0.90;;
65463;SDS011;52063;45.110;9.870;2023-04-15T05:35:31;1.47;;;0.70;;
65463;SDS011;52063;45.110;9.870;2023-04-15T05:37:57;1.45;;;0.63;;
65463;SDS011;52063;45.110;9.870;2023-04-15T05:40:22;2.03;;;0.70;;
65463;SDS011;52063;45.110;9.870;2023-04-15T05:42:48;1.58;;;0.70;;
65463;SDS011;52063;45.110;9.870;2023-04-15T05:45:13;0.93;;;0.60;;
65463;SDS011;52063;45.110;9.870;2023-04-15T05:47:39;2.80;;;0.80;;
65463;SDS011;52063;45.110;9.870;2023-04-15T05:50:05;1.93;;;0.70;;
65463;SDS011;52063;45.110;9.870;2023-04-15T05:52:30;0.80;;;0.70;;
65463;SDS011;52063;45.110;9.870;2023-04-15T05:54:56;1.25;;;0.70;;
65463;SDS011;52063;45.110;9.870;2023-04-15T05:57:22;1.17;;;0.63;;
65463;SDS011;52063;45.110;9.870;2023-04-15T05:59:47;0.90;;;0.80;;
65463;SDS011;52063;45.110;9.870;2023-04-15T06:02:13;1.43;;;0.93;;
65463;SDS011;52063;45.110;9.870;2023-04-15T06:04:38;0.82;;;0.65;;
65463;SDS011;52063;45.110;9.870;2023-04-15T06:07:04;0.80;;;0.60;;
65463;SDS011;52063;45.110;9.870;2023-04-15T06:09:30;1.27;;;0.80;;
65463;SDS011;52063;45.110;9.870;2023-04-15T06:11:55;1.43;;;0.90;;
65463;SDS011;52063;45.110;9.870;2023-04-15T06:14:23;0.93;;;0.82;;
65463;SDS011;52063;45.110;9.870;2023-04-15T06:16:49;2.40;;;1.50;;
65463;SDS011;52063;45.110;9.870;2023-04-15T06:19:15;3.15;;;1.55;;
65463;SDS011;52063;45.110;9.870;2023-04-15T06:21:40;3.27;;;1.20;;
65463;SDS011;52063;45.110;9.870;2023-04-15T06:24:06;2.67;;;2.03;;
65463;SDS011;52063;45.110;9.870;2023-04-15T06:26:31;4.55;;;2.47;;
65463;SDS011;52063;45.110;9.870;2023-04-15T06:28:57;1.70;;;1.60;;
65463;SDS011;52063;45.110;9.870;2023-04-15T06:31:22;2.28;;;1.85;;
65463;SDS011;52063;45.110;9.870;2023-04-15T06:33:48;3.43;;;2.60;;
65463;SDS011;52063;45.110;9.870;2023-04-15T06:36:13;2.60;;;2.40;;
65463;SDS011;52063;45.110;9.870;2023-04-15T06:38:39;4.57;;;3.35;;
65463;SDS011;52063;45.110;9.870;2023-04-15T06:41:05;3.93;;;2.97;;
65463;SDS011;52063;45.110;9.870;2023-04-15T06:43:30;3.30;;;3.00;;
65463;SDS011;52063;45.110;9.870;2023-04-15T06:45:56;4.30;;;2.70;;
65463;SDS011;52063;45.110;9.870;2023-04-15T06:48:21;4.60;;;2.70;;
65463;SDS011;52063;45.110;9.870;2023-04-15T06:50:48;5.57;;;2.83;;
65463;SDS011;52063;45.110;9.870;2023-04-15T06:53:13;3.37;;;3.10;;
65463;SDS011;52063;45.110;9.870;2023-04-15T06:55:40;3.60;;;3.30;;
65463;SDS011;52063;45.110;9.870;2023-04-15T06:58:06;3.22;;;2.95;;
65463;SDS011;52063;45.110;9.870;2023-04-15T07:00:31;4.00;;;3.38;;
65463;SDS011;52063;45.110;9.870;2023-04-15T07:02:58;6.67;;;3.80;;
65463;SDS011;52063;45.110;9.870;2023-04-15T07:05:27;6.22;;;3.30;;
65463;SDS011;52063;45.110;9.870;2023-04-15T07:07:53;8.48;;;3.50;;
65463;SDS011;52063;45.110;9.870;2023-04-15T07:10:19;3.63;;;3.00;;
65463;SDS011;52063;45.110;9.870;2023-04-15T07:12:45;5.33;;;2.87;;
65463;SDS011;52063;45.110;9.870;2023-04-15T07:15:10;3.30;;;3.00;;
65463;SDS011;52063;45.110;9.870;2023-04-15T07:17:36;3.47;;;2.88;;
65463;SDS011;52063;45.110;9.870;2023-04-15T07:20:02;6.38;;;3.20;;
65463;SDS011;52063;45.110;9.870;2023-04-15T07:22:29;2.72;;;2.53;;
65463;SDS011;52063;45.110;9.870;2023-04-15T07:24:54;3.40;;;3.00;;
65463;SDS011;52063;45.110;9.870;2023-04-15T07:27:20;4.10;;;2.60;;
65463;SDS011;52063;45.110;9.870;2023-04-15T07:29:45;3.78;;;3.00;;
65463;SDS011;52063;45.110;9.870;2023-04-15T07:32:10;2.90;;;2.70;;
65463;SDS011;52063;45.110;9.870;2023-04-15T07:34:36;4.77;;;2.93;;
65463;SDS011;52063;45.110;9.870;2023-04-15T07:37:02;5.55;;;3.40;;
65463;SDS011;52063;45.110;9.870;2023-04-15T07:39:27;3.20;;;2.90;;
65463;SDS011;52063;45.110;9.870;2023-04-15T07:41:54;5.93;;;2.90;;
65463;SDS011;52063;45.110;9.870;2023-04-15T07:44:19;3.20;;;2.42;;
65463;SDS011;52063;45.110;9.870;2023-04-15T07:46:45;3.07;;;2.53;;
65463;SDS011;52063;45.110;9.870;2023-04-15T07:49:10;3.60;;;2.80;;
65463;SDS011;52063;45.110;9.870;2023-04-15T07:51:36;4.57;;;2.47;;
65463;SDS011;52063;45.110;9.870;2023-04-15T07:54:02;2.53;;;2.33;;
65463;SDS011;52063;45.110;9.870;2023-04-15T07:56:28;2.40;;;2.20;;
65463;SDS011;52063;45.110;9.870;2023-04-15T07:58:53;4.72;;;2.33;;
65463;SDS011;52063;45.110;9.870;2023-04-15T08:01:19;3.63;;;2.30;;
65463;SDS011;52063;45.110;9.870;2023-04-15T08:03:44;3.07;;;2.40;;
65463;SDS011;52063;45.110;9.870;2023-04-15T08:06:10;2.20;;;1.98;;
65463;SDS011;52063;45.110;9.870;2023-04-15T08:08:36;2.30;;;1.55;;
65463;SDS011;52063;45.110;9.870;2023-04-15T08:11:01;2.47;;;1.70;;
65463;SDS011;52063;45.110;9.870;2023-04-15T08:13:27;2.40;;;1.90;;
65463;SDS011;52063;45.110;9.870;2023-04-15T08:18:37;2.70;;;1.85;;
65463;SDS011;52063;45.110;9.870;2023-04-15T08:21:03;1.83;;;1.40;;
65463;SDS011;52063;45.110;9.870;2023-04-15T08:23:28;2.60;;;1.70;;
65463;SDS011;52063;45.110;9.870;2023-04-15T08:25:54;3.70;;;1.80;;
65463;SDS011;52063;45.110;9.870;2023-04-15T08:28:19;3.23;;;1.60;;
65463;SDS011;52063;45.110;9.870;2023-04-15T08:30:45;2.00;;;1.60;;
65463;SDS011;52063;45.110;9.870;2023-04-15T08:33:11;2.10;;;1.75;;
65463;SDS011;52063;45.110;9.870;2023-04-15T08:35:36;2.20;;;1.30;;
65463;SDS011;52063;45.110;9.870;2023-04-15T08:38:02;2.83;;;1.50;;
65463;SDS011;52063;45.110;9.870;2023-04-15T08:40:27;3.15;;;1.38;;
65463;SDS011;52063;45.110;9.870;2023-04-15T08:42:59;2.07;;;1.53;;
65463;SDS011;52063;45.110;9.870;2023-04-15T08:45:26;7.53;;;1.27;;
65463;SDS011;52063;45.110;9.870;2023-04-15T08:47:51;1.52;;;1.17;;
65463;SDS011;52063;45.110;9.870;2023-04-15T08:50:20;2.20;;;1.33;;
65463;SDS011;52063;45.110;9.870;2023-04-15T08:52:46;2.05;;;1.20;;
65463;SDS011;52063;45.110;9.870;2023-04-15T08:55:12;3.50;;;1.50;;
65463;SDS011;52063;45.110;9.870;2023-04-15T08:57:37;2.42;;;1.40;;
65463;SDS011;52063;45.110;9.870;2023-04-15T09:00:04;1.83;;;1.20;;
65463;SDS011;52063;45.110;9.870;2023-04-15T09:02:30;2.58;;;1.42;;
65463;SDS011;52063;45.110;9.870;2023-04-15T09:04:55;1.77;;;1.30;;
65463;SDS011;52063;45.110;9.870;2023-04-15T09:07:21;1.83;;;1.20;;
65463;SDS011;52063;45.110;9.870;2023-04-15T09:09:47;1.90;;;1.03;;
65463;SDS011;52063;45.110;9.870;2023-04-15T09:12:12;2.85;;;1.40;;
65463;SDS011;52063;45.110;9.870;2023-04-15T09:14:41;1.20;;;0.80;;
65463;SDS011;52063;45.110;9.870;2023-04-15T09:17:08;3.75;;;1.55;;
65463;SDS011;52063;45.110;9.870;2023-04-15T09:19:34;4.10;;;1.73;;
65463;SDS011;52063;45.110;9.870;2023-04-15T09:21:59;2.27;;;1.37;;
65463;SDS011;52063;45.110;9.870;2023-04-15T09:24:32;2.17;;;1.30;;
65463;SDS011;52063;45.110;9.870;2023-04-15T09:27:01;1.70;;;1.07;;
65463;SDS011;52063;45.110;9.870;2023-04-15T09:29:27;2.15;;;1.30;;
65463;SDS011;52063;45.110;9.870;2023-04-15T09:31:53;3.27;;;1.30;;
65463;SDS011;52063;45.110;9.870;2023-04-15T09:34:18;2.20;;;1.15;;
65463;SDS011;52063;45.110;9.870;2023-04-15T09:39:14;2.83;;;1.40;;
65463;SDS011;52063;45.110;9.870;2023-04-15T09:41:39;1.65;;;1.00;;
65463;SDS011;52063;45.110;9.870;2023-04-15T09:44:05;2.10;;;1.30;;
65463;SDS011;52063;45.110;9.870;2023-04-15T09:46:40;2.22;;;1.13;;
65463;SDS011;52063;45.110;9.870;2023-04-15T09:49:07;2.88;;;1.30;;
65463;SDS011;52063;45.110;9.870;2023-04-15T09:51:34;1.80;;;1.40;;
65463;SDS011;52063;45.110;9.870;2023-04-15T09:54:00;2.60;;;1.50;;
65463;SDS011;52063;45.110;9.870;2023-04-15T09:56:31;2.13;;;1.15;;
65463;SDS011;52063;45.110;9.870;2023-04-15T09:59:05;1.52;;;1.20;;
65463;SDS011;52063;45.110;9.870;2023-04-15T10:01:31;1.60;;;1.20;;
65463;SDS011;52063;45.110;9.870;2023-04-15T10:03:56;4.50;;;1.20;;
65463;SDS011;52063;45.110;9.870;2023-04-15T10:06:25;2.20;;;1.17;;
65463;SDS011;52063;45.110;9.870;2023-04-15T10:08:51;2.85;;;1.38;;
65463;SDS011;52063;45.110;9.870;2023-04-15T10:11:18;1.63;;;1.20;;
65463;SDS011;52063;45.110;9.870;2023-04-15T10:13:44;3.60;;;1.50;;
65463;SDS011;52063;45.110;9.870;2023-04-15T10:16:13;2.05;;;1.30;;
65463;SDS011;52063;45.110;9.870;2023-04-15T10:18:41;1.30;;;1.20;;
65463;SDS011;52063;45.110;9.870;2023-04-15T10:21:08;2.17;;;1.40;;
65463;SDS011;52063;45.110;9.870;2023-04-15T10:23:34;1.70;;;1.17;;
65463;SDS011;52063;45.110;9.870;2023-04-15T10:26:00;1.67;;;1.10;;
65463;SDS011;52063;45.110;9.870;2023-04-15T10:28:26;1.77;;;1.13;;
65463;SDS011;52063;45.110;9.870;2023-04-15T10:30:51;2.50;;;1.10;;
65463;SDS011;52063;45.110;9.870;2023-04-15T10:33:19;2.10;;;1.20;;
65463;SDS011;52063;45.110;9.870;2023-04-15T10:35:45;3.08;;;1.20;;
65463;SDS011;52063;45.110;9.870;2023-04-15T10:43:55;1.73;;;1.17;;
65463;SDS011;52063;45.110;9.870;2023-04-15T10:46:34;1.92;;;1.42;;
65463;SDS011;52063;45.110;9.870;2023-04-15T10:49:08;3.22;;;1.20;;
65463;SDS011;52063;45.110;9.870;2023-04-15T10:51:39;1.60;;;1.17;;
65463;SDS011;52063;45.110;9.870;2023-04-15T10:54:12;3.25;;;1.10;;
65463;SDS011;52063;45.110;9.870;2023-04-15T10:56:43;1.90;;;1.17;;
65463;SDS011;52063;45.110;9.870;2023-04-15T10:59:09;1.50;;;1.10;;
65463;SDS011;52063;45.110;9.870;2023-04-15T11:05:07;2.95;;;1.10;;
65463;SDS011;52063;45.110;9.870;2023-04-15T11:12:43;1.80;;;1.30;;
65463;SDS011;52063;45.110;9.870;2023-04-15T11:17:57;1.30;;;1.17;;
65463;SDS011;52063;45.110;9.870;2023-04-15T11:20:24;1.43;;;1.07;;
65463;SDS011;52063;45.110;9.870;2023-04-15T11:22:50;1.55;;;1.17;;
65463;SDS011;52063;45.110;9.870;2023-04-15T11:27:49;1.92;;;1.05;;
65463;SDS011;52063;45.110;9.870;2023-04-15T11:30:21;2.17;;;1.20;;
65463;SDS011;52063;45.110;9.870;2023-04-15T11:32:48;2.30;;;1.30;;
65463;SDS011;52063;45.110;9.870;2023-04-15T11:35:17;2.13;;;1.10;;
65463;SDS011;52063;45.110;9.870;2023-04-15T11:37:45;2.05;;;1.25;;
65463;SDS011;52063;45.110;9.870;2023-04-15T11:40:12;1.37;;;1.00;;
65463;SDS011;52063;45.110;9.870;2023-04-15T11:42:39;3.08;;;1.23;;
65463;SDS011;52063;45.110;9.870;2023-04-15T11:45:05;1.75;;;1.27;;
65463;SDS011;52063;45.110;9.870;2023-04-15T11:47:35;1.40;;;1.15;;
65463;SDS011;52063;45.110;9.870;2023-04-15T11:50:17;1.45;;;1.00;;
65463;SDS011;52063;45.110;9.870;2023-04-15T11:52:57;3.27;;;1.13;;
65463;SDS011;52063;45.110;9.870;2023-04-15T11:55:24;2.72;;;1.10;;
65463;SDS011;52063;45.110;9.870;2023-04-15T11:58:04;2.10;;;1.50;;
65463;SDS011;52063;45.110;9.870;2023-04-15T12:00:32;2.42;;;1.45;;
65463;SDS011;52063;45.110;9.870;2023-04-15T12:08:56;2.10;;;1.10;;
65463;SDS011;52063;45.110;9.870;2023-04-15T12:14:06;2.40;;;1.17;;
65463;SDS011;52063;45.110;9.870;2023-04-15T12:16:35;1.92;;;1.10;;
65463;SDS011;52063;45.110;9.870;2023-04-15T12:19:03;1.50;;;1.40;;
65463;SDS011;52063;45.110;9.870;2023-04-15T12:21:35;1.70;;;1.20;;
65463;SDS011;52063;45.110;9.870;2023-04-15T12:24:02;1.48;;;1.10;;
65463;SDS011;52063;45.110;9.870;2023-04-15T12:26:52;1.17;;;0.82;;
65463;SDS011;52063;45.110;9.870;2023-04-15T12:29:24;1.35;;;0.80;;
65463;SDS011;52063;45.110;9.870;2023-04-15T12:34:18;2.25;;;1.00;;
65463;SDS011;52063;45.110;9.870;2023-04-15T12:36:57;1.33;;;0.80;;
65463;SDS011;52063;45.110;9.870;2023-04-15T12:39:24;2.55;;;1.02;;
65463;SDS011;52063;45.110;9.870;2023-04-15T12:41:51;1.60;;;0.82;;
65463;SDS011;52063;45.110;9.870;2023-04-15T12:44:16;1.00;;;0.70;;
65463;SDS011;52063;45.110;9.870;2023-04-15T12:46:42;1.33;;;1.00;;
65463;SDS011;52063;45.110;9.870;2023-04-15T12:49:08;1.55;;;1.00;;
65463;SDS011;52063;45.110;9.870;2023-04-15T12:51:33;0.90;;;0.80;;
65463;SDS011;52063;45.110;9.870;2023-04-15T12:53:59;1.50;;;1.20;;
65463;SDS011;52063;45.110;9.870;2023-04-15T12:56:24;1.20;;;1.00;;
65463;SDS011;52063;45.110;9.870;2023-04-15T12:58:50;1.20;;;0.90;;
65463;SDS011;52063;45.110;9.870;2023-04-15T13:01:15;1.73;;;1.17;;
65463;SDS011;52063;45.110;9.870;2023-04-15T13:03:41;2.00;;;1.10;;
65463;SDS011;52063;45.110;9.870;2023-04-15T13:06:07;1.00;;;0.82;;
65463;SDS011;52063;45.110;9.870;2023-04-15T13:08:32;1.40;;;0.90;;
65463;SDS011;52063;45.110;9.870;2023-04-15T13:10:58;3.55;;;1.05;;
65463;SDS011;52063;45.110;9.870;2023-04-15T13:13:23;2.03;;;1.13;;
65463;SDS011;52063;45.110;9.870;2023-04-15T13:15:49;1.20;;;1.10;;
65463;SDS011;52063;45.110;9.870;2023-04-15T13:18:14;1.60;;;1.30;;
65463;SDS011;52063;45.110;9.870;2023-04-15T13:20:40;1.20;;;0.83;;
65463;SDS011;52063;45.110;9.870;2023-04-15T13:23:06;1.55;;;1.00;;
65463;SDS011;52063;45.110;9.870;2023-04-15T13:25:31;1.00;;;0.90;;
65463;SDS011;52063;45.110;9.870;2023-04-15T13:27:57;1.17;;;1.03;;
65463;SDS011;52063;45.110;9.870;2023-04-15T13:30:22;1.80;;;1.10;;
65463;SDS011;52063;45.110;9.870;2023-04-15T13:32:48;1.47;;;1.00;;
65463;SDS011;52063;45.110;9.870;2023-04-15T13:35:14;1.70;;;1.30;;
65463;SDS011;52063;45.110;9.870;2023-04-15T13:37:40;1.10;;;0.80;;
65463;SDS011;52063;45.110;9.870;2023-04-15T13:40:06;1.17;;;0.80;;
65463;SDS011;52063;45.110;9.870;2023-04-15T13:42:32;2.00;;;1.20;;
65463;SDS011;52063;45.110;9.870;2023-04-15T13:44:57;1.70;;;1.03;;
65463;SDS011;52063;45.110;9.870;2023-04-15T13:47:22;0.90;;;0.90;;
65463;SDS011;52063;45.110;9.870;2023-04-15T13:49:48;1.10;;;0.83;;
65463;SDS011;52063;45.110;9.870;2023-04-15T13:52:13;1.60;;;1.10;;
65463;SDS011;52063;45.110;9.870;2023-04-15T13:54:39;1.55;;;0.95;;
65463;SDS011;52063;45.110;9.870;2023-04-15T13:57:04;1.50;;;0.77;;
65463;SDS011;52063;45.110;9.870;2023-04-15T13:59:31;1.55;;;1.00;;
65463;SDS011;52063;45.110;9.870;2023-04-15T14:01:57;1.23;;;1.00;;
65463;SDS011;52063;45.110;9.870;2023-04-15T14:04:23;0.97;;;0.70;;
65463;SDS011;52063;45.110;9.870;2023-04-15T14:06:48;1.30;;;1.00;;
65463;SDS011;52063;45.110;9.870;2023-04-15T14:09:14;1.15;;;0.63;;
65463;SDS011;52063;45.110;9.870;2023-04-15T14:11:39;1.13;;;0.87;;
65463;SDS011;52063;45.110;9.870;2023-04-15T14:14:05;1.10;;;0.80;;
65463;SDS011;52063;45.110;9.870;2023-04-15T14:16:31;1.43;;;0.70;;
65463;SDS011;52063;45.110;9.870;2023-04-15T14:18:58;0.80;;;0.70;;
65463;SDS011;52063;45.110;9.870;2023-04-15T14:21:24;1.13;;;1.03;;
65463;SDS011;52063;45.110;9.870;2023-04-15T14:23:52;1.10;;;0.80;;
65463;SDS011;52063;45.110;9.870;2023-04-15T14:26:17;1.63;;;0.93;;
65463;SDS011;52063;45.110;9.870;2023-04-15T14:28:43;1.13;;;0.88;;
65463;SDS011;52063;45.110;9.870;2023-04-15T14:31:09;1.63;;;0.90;;
65463;SDS011;52063;45.110;9.870;2023-04-15T14:33:34;1.00;;;0.85;;
65463;SDS011;52063;45.110;9.870;2023-04-15T14:36:00;1.07;;;0.70;;
65463;SDS011;52063;45.110;9.870;2023-04-15T14:38:25;2.03;;;0.93;;
65463;SDS011;52063;45.110;9.870;2023-04-15T14:40:51;1.38;;;0.90;;
65463;SDS011;52063;45.110;9.870;2023-04-15T14:43:16;1.20;;;1.00;;
65463;SDS011;52063;45.110;9.870;2023-04-15T14:45:41;1.10;;;0.73;;
65463;SDS011;52063;45.110;9.870;2023-04-15T14:48:07;1.43;;;0.83;;
65463;SDS011;52063;45.110;9.870;2023-04-15T14:50:34;2.05;;;0.90;;
65463;SDS011;52063;45.110;9.870;2023-04-15T14:53:00;1.40;;;0.80;;
65463;SDS011;52063;45.110;9.870;2023-04-15T14:55:25;1.77;;;0.93;;
65463;SDS011;52063;45.110;9.870;2023-04-15T14:57:51;1.20;;;0.70;;
65463;SDS011;52063;45.110;9.870;2023-04-15T15:00:16;1.57;;;0.70;;
65463;SDS011;52063;45.110;9.870;2023-04-15T15:02:42;1.23;;;0.77;;
65463;SDS011;52063;45.110;9.870;2023-04-15T15:05:08;1.00;;;0.70;;
65463;SDS011;52063;45.110;9.870;2023-04-15T15:07:34;0.80;;;0.60;;
65463;SDS011;52063;45.110;9.870;2023-04-15T15:10:01;1.00;;;0.60;;
65463;SDS011;52063;45.110;9.870;2023-04-15T15:12:26;0.90;;;0.77;;
65463;SDS011;52063;45.110;9.870;2023-04-15T15:14:53;0.88;;;0.60;;
65463;SDS011;52063;45.110;9.870;2023-04-15T15:17:19;0.80;;;0.50;;
65463;SDS011;52063;45.110;9.870;2023-04-15T15:19:44;0.80;;;0.68;;